Time;durP1;ratioP1;P1;durP2;ratioP2;P2;SDS_P1;SDS_P2;PMS_P1;PMS_P2;Temp;Humidity;BMP_temperature;BMP_pressure;BME280_temperature;BME280_humidity;BME280_pressure;Samples;Min_cycle;Max_cycle;Signal;HPM_P1;HPM_P2
2022/10/19 00:01:35;;;;;;;;;;;11.10;99.90;;;;;;5011194;28;19920;-91
2022/10/19 00:04:01;;;;;;;;;;;11.10;99.90;;;;;;5010371;28;20008;-89
2022/10/19 00:06:28;;;;;;;;;;;11.10;99.90;;;;;;5007676;28;19972;-89
2022/10/19 00:08:58;;;;;;;;;;;11.10;99.90;;;;;;5022495;28;19930;-88
2022/10/19 00:11:24;;;;;;;;;;;11.10;99.90;;;;;;4994251;28;19910;-92
2022/10/19 00:13:50;;;;;;;;;;;11.00;99.90;;;;;;5000564;28;19953;-89
2022/10/19 00:16:17;;;;;;;;;;;11.00;99.90;;;;;;5011624;28;19910;-92
2022/10/19 00:18:42;;;;;;;;;;;11.00;99.90;;;;;;4999707;28;19913;-90
2022/10/19 00:21:09;;;;;;;;;;;11.00;99.90;;;;;;5033558;28;19909;-90
2022/10/19 00:23:35;;;;;;;;;;;10.90;99.90;;;;;;5024678;28;20020;-91
2022/10/19 00:26:01;;;;;;;;;;;10.90;99.90;;;;;;4999148;28;20013;-89
2022/10/19 00:28:26;;;;;;;;;;;10.90;99.90;;;;;;5017626;28;19914;-88
2022/10/19 00:30:52;;;;;;;;;;;10.90;99.90;;;;;;5015292;28;20059;-90
2022/10/19 00:33:20;;;;;;;;;;;11.00;99.90;;;;;;5031231;28;19918;-91
2022/10/19 00:35:50;;;;;;;;;;;10.90;99.90;;;;;;5035688;28;19913;-90
2022/10/19 00:38:16;;;;;;;;;;;11.00;99.90;;;;;;5018201;28;19924;-93
2022/10/19 00:40:41;;;;;;;;;;;10.90;99.90;;;;;;5018499;28;19914;-90
2022/10/19 00:43:14;;;;;;;;;;;11.00;99.90;;;;;;5017850;28;20379;-90
2022/10/19 00:45:40;;;;;;;;;;;10.90;99.90;;;;;;5034602;28;20499;-90
2022/10/19 00:48:05;;;;;;;;;;;10.90;99.90;;;;;;5018129;28;19913;-87
2022/10/19 00:50:31;;;;;;;;;;;10.80;99.90;;;;;;5036197;28;19956;-90
2022/10/19 00:52:56;;;;;;;;;;;10.80;99.90;;;;;;5034936;28;20614;-90
2022/10/19 00:55:22;;;;;;;;;;;10.80;99.90;;;;;;5034271;28;20025;-91
2022/10/19 00:57:48;;;;;;;;;;;10.80;99.90;;;;;;5009232;28;19944;-91
2022/10/19 01:00:13;;;;;;;;;;;10.90;99.90;;;;;;5036001;28;20365;-89
2022/10/19 01:02:39;;;;;;;;;;;11.00;99.90;;;;;;5034959;28;19918;-90
2022/10/19 01:05:05;;;;;;;;;;;11.10;99.90;;;;;;5017664;28;19921;-88
2022/10/19 01:07:31;;;;;;;;;;;11.30;99.90;;;;;;5015502;28;20341;-88
2022/10/19 01:09:57;;;;;;;;;;;11.40;99.90;;;;;;5015719;28;19943;-90
2022/10/19 01:12:45;;;;;;;;;;;11.40;99.90;;;;;;5034990;28;19939;-89
2022/10/19 01:15:27;;;;;;;;;;;11.30;99.90;;;;;;5035383;28;19913;-89
2022/10/19 01:17:58;;;;;;;;;;;11.20;99.90;;;;;;5013941;28;20354;-92
2022/10/19 01:20:30;;;;;;;;;;;11.20;99.90;;;;;;5014208;28;19909;-90
2022/10/19 01:23:20;;;;;;;;;;;11.20;99.90;;;;;;5031610;28;20064;-87
2022/10/19 01:26:05;;;;;;;;;;;11.30;99.90;;;;;;5017340;28;19909;-89
2022/10/19 01:28:55;;;;;;;;;;;11.40;99.90;;;;;;5028419;28;19964;-88
2022/10/19 01:31:47;;;;;;;;;;;11.40;99.90;;;;;;5032335;28;20389;-89
2022/10/19 01:34:15;;;;;;;;;;;11.40;99.90;;;;;;5030953;28;19909;-88
2022/10/19 01:36:43;;;;;;;;;;;11.50;99.90;;;;;;5033491;28;19924;-91
2022/10/19 01:39:27;;;;;;;;;;;11.50;99.90;;;;;;5033354;28;19924;-88
2022/10/19 01:42:08;;;;;;;;;;;11.50;99.90;;;;;;5034188;28;19917;-90
2022/10/19 01:44:53;;;;;;;;;;;11.50;99.90;;;;;;5034999;28;19968;-91
2022/10/19 01:47:23;;;;;;;;;;;11.50;99.90;;;;;;5018155;28;19917;-92
2022/10/19 01:49:52;;;;;;;;;;;11.50;99.90;;;;;;5036098;28;19920;-90
2022/10/19 01:52:19;;;;;;;;;;;11.40;99.90;;;;;;5016995;28;19909;-90
2022/10/19 01:54:47;;;;;;;;;;;11.30;99.90;;;;;;5013518;28;19916;-89
2022/10/19 01:57:15;;;;;;;;;;;11.50;99.90;;;;;;5014458;28;19976;-91
2022/10/19 01:59:42;;;;;;;;;;;11.50;99.90;;;;;;5011271;28;20264;-90
2022/10/19 02:02:08;;;;;;;;;;;11.50;99.90;;;;;;5016042;28;19967;-94
2022/10/19 02:04:35;;;;;;;;;;;11.60;99.90;;;;;;5033080;28;19909;-88
2022/10/19 02:07:01;;;;;;;;;;;11.50;99.90;;;;;;5034253;28;19909;-88
2022/10/19 02:09:27;;;;;;;;;;;11.60;99.90;;;;;;5032964;28;20391;-91
2022/10/19 02:11:55;;;;;;;;;;;11.60;99.90;;;;;;5016182;28;19913;-90
2022/10/19 02:14:23;;;;;;;;;;;11.70;99.90;;;;;;5014087;28;19913;-92
2022/10/19 02:16:51;;;;;;;;;;;11.70;99.90;;;;;;5034068;28;19913;-89
2022/10/19 02:19:18;;;;;;;;;;;11.70;99.90;;;;;;5016213;28;19963;-89
2022/10/19 02:21:43;;;;;;;;;;;11.70;99.90;;;;;;5032569;28;20003;-90
2022/10/19 02:24:09;;;;;;;;;;;11.60;99.90;;;;;;5015974;28;19999;-91
2022/10/19 02:26:35;;;;;;;;;;;11.50;99.90;;;;;;5012169;28;20897;-91
2022/10/19 02:29:00;;;;;;;;;;;11.50;99.90;;;;;;5032636;28;19909;-91
2022/10/19 02:31:26;;;;;;;;;;;11.40;99.90;;;;;;5015492;28;19913;-89
2022/10/19 02:33:51;;;;;;;;;;;11.50;99.90;;;;;;5011178;28;19960;-91
2022/10/19 02:36:18;;;;;;;;;;;11.40;99.90;;;;;;5015237;28;19913;-90
2022/10/19 02:38:43;;;;;;;;;;;11.50;99.90;;;;;;5029296;28;20353;-91
2022/10/19 02:41:32;;;;;;;;;;;11.40;99.90;;;;;;5015807;28;19921;-94
2022/10/19 02:44:00;;;;;;;;;;;11.40;99.90;;;;;;5011791;28;19921;-87
2022/10/19 02:46:25;;;;;;;;;;;11.40;99.90;;;;;;5016263;28;19921;-92
2022/10/19 02:48:52;;;;;;;;;;;11.30;99.90;;;;;;5019533;28;19920;-89
2022/10/19 02:51:27;;;;;;;;;;;11.30;99.90;;;;;;5016351;28;19921;-93
2022/10/19 02:53:53;;;;;;;;;;;11.30;99.90;;;;;;5028877;28;19913;-90
2022/10/19 02:56:18;;;;;;;;;;;11.30;99.90;;;;;;5026253;28;20019;-89
2022/10/19 02:58:44;;;;;;;;;;;11.40;99.90;;;;;;5015348;28;20010;-88
2022/10/19 03:01:09;;;;;;;;;;;11.30;99.90;;;;;;5033016;28;19979;-90
2022/10/19 03:03:35;;;;;;;;;;;11.30;99.90;;;;;;5011839;28;19925;-90
2022/10/19 03:06:00;;;;;;;;;;;11.30;99.90;;;;;;5029952;28;19917;-92
2022/10/19 03:08:26;;;;;;;;;;;11.30;99.90;;;;;;5015597;28;19913;-91
2022/10/19 03:10:51;;;;;;;;;;;11.20;99.90;;;;;;5015491;28;19913;-89
2022/10/19 03:13:17;;;;;;;;;;;11.10;99.90;;;;;;5031874;28;20590;-90
2022/10/19 03:15:42;;;;;;;;;;;11.10;99.90;;;;;;5033133;28;19921;-89
2022/10/19 03:18:08;;;;;;;;;;;11.20;99.90;;;;;;5015123;28;19921;-88
2022/10/19 03:20:33;;;;;;;;;;;11.20;99.90;;;;;;5015498;28;20331;-89
2022/10/19 03:22:59;;;;;;;;;;;11.40;99.90;;;;;;5015216;28;19917;-89
2022/10/19 03:25:24;;;;;;;;;;;11.40;99.90;;;;;;5027858;28;19917;-91
2022/10/19 03:27:50;;;;;;;;;;;11.40;99.90;;;;;;5013441;28;20346;-88
2022/10/19 03:30:16;;;;;;;;;;;11.40;99.90;;;;;;5028883;28;19921;-90
2022/10/19 03:32:41;;;;;;;;;;;11.50;99.90;;;;;;5015051;28;19909;-89
2022/10/19 03:35:07;;;;;;;;;;;11.50;99.90;;;;;;5032778;28;19972;-91
2022/10/19 03:37:32;;;;;;;;;;;11.50;99.90;;;;;;5031546;28;19913;-90
2022/10/19 03:39:58;;;;;;;;;;;11.50;99.90;;;;;;5011729;28;19921;-91
2022/10/19 03:42:23;;;;;;;;;;;11.60;99.90;;;;;;5030473;28;19918;-92
2022/10/19 03:44:49;;;;;;;;;;;11.60;99.90;;;;;;5032546;28;20387;-88
2022/10/19 03:47:14;;;;;;;;;;;11.60;99.90;;;;;;5032963;28;20328;-89
2022/10/19 03:49:40;;;;;;;;;;;11.70;99.90;;;;;;5015008;28;20036;-91
2022/10/19 03:52:08;;;;;;;;;;;11.60;99.90;;;;;;5027409;28;19944;-91
2022/10/19 03:54:34;;;;;;;;;;;11.80;99.90;;;;;;5037170;28;19927;-90
2022/10/19 03:56:59;;;;;;;;;;;11.70;99.90;;;;;;5036226;28;19912;-90
2022/10/19 03:59:25;;;;;;;;;;;11.80;99.90;;;;;;5036825;28;19948;-87
2022/10/19 04:01:50;;;;;;;;;;;11.80;99.90;;;;;;5034218;28;20336;-88
2022/10/19 04:04:17;;;;;;;;;;;11.90;99.90;;;;;;5032206;28;19939;-88
2022/10/19 04:06:43;;;;;;;;;;;11.90;99.90;;;;;;5036989;28;19917;-89
2022/10/19 04:09:14;;;;;;;;;;;11.90;99.90;;;;;;5018952;28;20344;-91
2022/10/19 04:11:40;;;;;;;;;;;12.00;99.90;;;;;;5035678;28;20284;-90
2022/10/19 04:14:06;;;;;;;;;;;12.00;99.90;;;;;;5035035;28;19917;-91
2022/10/19 04:16:32;;;;;;;;;;;12.00;99.90;;;;;;5036336;28;20352;-91
2022/10/19 04:18:58;;;;;;;;;;;11.90;99.90;;;;;;5035733;28;19925;-89
2022/10/19 04:21:29;;;;;;;;;;;11.90;99.90;;;;;;5036393;28;20284;-90
2022/10/19 04:23:59;;;;;;;;;;;11.90;99.90;;;;;;5018377;28;20031;-91
2022/10/19 04:26:25;;;;;;;;;;;11.90;99.90;;;;;;5014661;28;20655;-88
2022/10/19 04:28:50;;;;;;;;;;;11.90;99.90;;;;;;5007938;28;20016;-90
2022/10/19 04:31:16;;;;;;;;;;;11.90;99.90;;;;;;5034918;28;20046;-90
2022/10/19 04:33:41;;;;;;;;;;;11.90;99.90;;;;;;5035520;28;19939;-90
2022/10/19 04:36:08;;;;;;;;;;;11.90;99.90;;;;;;5017723;28;19920;-91
2022/10/19 04:38:34;;;;;;;;;;;11.90;99.90;;;;;;5017218;28;19913;-89
2022/10/19 04:41:02;;;;;;;;;;;11.90;99.90;;;;;;5032210;28;19932;-90
2022/10/19 04:43:27;;;;;;;;;;;11.80;99.90;;;;;;5027931;28;20398;-92
2022/10/19 04:45:53;;;;;;;;;;;11.90;99.90;;;;;;5034128;28;19917;-89
2022/10/19 04:48:18;;;;;;;;;;;11.90;99.90;;;;;;5034354;28;19952;-89
2022/10/19 04:50:44;;;;;;;;;;;12.00;99.90;;;;;;5035558;28;19913;-90
2022/10/19 04:53:09;;;;;;;;;;;11.90;99.90;;;;;;5014715;28;20357;-89
2022/10/19 04:55:39;;;;;;;;;;;11.90;99.90;;;;;;5016995;28;20028;-91
2022/10/19 04:58:04;;;;;;;;;;;11.90;99.90;;;;;;5016705;28;19975;-90
2022/10/19 05:00:30;;;;;;;;;;;12.00;99.90;;;;;;5030697;28;19913;-90
2022/10/19 05:02:55;;;;;;;;;;;12.00;99.90;;;;;;5032625;28;19952;-92
2022/10/19 05:05:21;;;;;;;;;;;12.00;99.90;;;;;;5017340;28;19913;-91
2022/10/19 05:07:47;;;;;;;;;;;12.00;99.90;;;;;;5034586;28;20368;-92
2022/10/19 05:10:15;;;;;;;;;;;12.20;99.90;;;;;;5009678;28;19913;-88
2022/10/19 05:12:41;;;;;;;;;;;12.10;99.90;;;;;;5029249;28;19924;-88
2022/10/19 05:15:06;;;;;;;;;;;12.00;99.90;;;;;;5032701;28;19923;-89
2022/10/19 05:17:32;;;;;;;;;;;12.00;99.90;;;;;;5016463;28;19928;-88
2022/10/19 05:19:58;;;;;;;;;;;12.00;99.90;;;;;;5033799;28;19921;-89
2022/10/19 05:22:23;;;;;;;;;;;12.10;99.90;;;;;;5015015;28;19976;-89
2022/10/19 05:24:49;;;;;;;;;;;12.10;99.90;;;;;;5015614;28;19913;-90
2022/10/19 05:27:14;;;;;;;;;;;12.10;99.90;;;;;;5032437;28;19924;-90
2022/10/19 05:29:42;;;;;;;;;;;12.20;99.90;;;;;;5024841;28;19917;-87
2022/10/19 05:32:11;;;;;;;;;;;12.10;99.90;;;;;;5006541;28;19928;-90
2022/10/19 05:34:42;;;;;;;;;;;12.10;99.90;;;;;;5034805;28;19924;-86
2022/10/19 05:37:08;;;;;;;;;;;12.10;99.90;;;;;;5034630;28;19920;-89
2022/10/19 05:39:33;;;;;;;;;;;12.10;99.90;;;;;;5034589;28;19909;-86
2022/10/19 05:41:59;;;;;;;;;;;12.10;99.90;;;;;;5034362;28;19920;-87
2022/10/19 05:44:35;;;;;;;;;;;12.00;99.90;;;;;;5020706;28;19997;-89
2022/10/19 05:47:01;;;;;;;;;;;12.00;99.90;;;;;;5000522;28;20307;-88
2022/10/19 05:49:27;;;;;;;;;;;12.20;99.90;;;;;;5032516;28;19913;-89
2022/10/19 05:51:52;;;;;;;;;;;12.20;99.90;;;;;;5033372;28;20019;-89
2022/10/19 05:54:18;;;;;;;;;;;12.20;99.90;;;;;;5033832;28;19954;-89
2022/10/19 05:56:44;;;;;;;;;;;12.20;99.90;;;;;;5026432;28;20608;-89
2022/10/19 05:59:12;;;;;;;;;;;12.10;99.90;;;;;;5015155;28;20270;-88
2022/10/19 06:01:45;;;;;;;;;;;12.10;99.90;;;;;;5032045;28;19924;-89
2022/10/19 06:04:13;;;;;;;;;;;12.20;99.90;;;;;;4996995;28;19921;-86
2022/10/19 06:06:40;;;;;;;;;;;12.20;99.90;;;;;;5029698;28;19920;-86
2022/10/19 06:09:06;;;;;;;;;;;12.30;99.90;;;;;;5012692;28;19918;-86
2022/10/19 06:11:33;;;;;;;;;;;12.30;99.90;;;;;;5016076;28;19940;-87
2022/10/19 06:14:01;;;;;;;;;;;12.40;99.90;;;;;;5032126;28;19924;-86
2022/10/19 06:16:27;;;;;;;;;;;12.40;99.90;;;;;;5014874;28;20515;-88
2022/10/19 06:18:53;;;;;;;;;;;12.30;99.90;;;;;;5015843;28;19919;-89
2022/10/19 06:21:20;;;;;;;;;;;12.30;99.90;;;;;;5033346;28;19960;-87
2022/10/19 06:23:49;;;;;;;;;;;12.30;99.90;;;;;;5033417;28;19925;-90
2022/10/19 06:26:21;;;;;;;;;;;12.30;99.90;;;;;;5033460;28;19917;-85
2022/10/19 06:28:47;;;;;;;;;;;12.30;99.90;;;;;;5019788;28;19913;-87
2022/10/19 06:31:13;;;;;;;;;;;12.40;99.90;;;;;;5032955;28;19923;-87
2022/10/19 06:33:40;;;;;;;;;;;12.30;99.90;;;;;;5015461;28;19963;-88
2022/10/19 06:36:25;;;;;;;;;;;12.40;99.90;;;;;;5033119;28;20008;-88
2022/10/19 06:38:52;;;;;;;;;;;12.50;99.90;;;;;;5032214;28;19913;-88
2022/10/19 06:41:17;;;;;;;;;;;12.60;99.90;;;;;;5033149;28;19929;-88
2022/10/19 06:43:43;;;;;;;;;;;12.60;99.90;;;;;;5032771;28;19917;-88
2022/10/19 06:46:10;;;;;;;;;;;12.60;99.90;;;;;;5032514;28;19917;-88
2022/10/19 06:48:36;;;;;;;;;;;12.60;99.90;;;;;;5030282;28;19929;-89
2022/10/19 06:51:03;;;;;;;;;;;12.70;99.90;;;;;;5032965;28;19914;-86
2022/10/19 06:53:29;;;;;;;;;;;12.60;99.90;;;;;;5032739;28;20031;-89
2022/10/19 06:55:58;;;;;;;;;;;12.60;99.90;;;;;;5011548;28;19944;-89
2022/10/19 06:58:24;;;;;;;;;;;12.70;99.90;;;;;;5024831;28;19913;-88
2022/10/19 07:00:57;;;;;;;;;;;12.70;99.90;;;;;;5032057;28;19917;-86
2022/10/19 07:03:23;;;;;;;;;;;12.80;99.90;;;;;;5021009;28;19921;-87
2022/10/19 07:06:02;;;;;;;;;;;12.80;99.90;;;;;;5032095;28;19924;-88
2022/10/19 07:08:29;;;;;;;;;;;12.90;99.90;;;;;;5032531;28;19921;-87
2022/10/19 07:10:55;;;;;;;;;;;13.00;99.90;;;;;;5014801;28;19958;-89
2022/10/19 07:13:21;;;;;;;;;;;12.90;99.90;;;;;;5032477;28;19910;-87
2022/10/19 07:15:47;;;;;;;;;;;13.00;99.90;;;;;;5027972;28;19920;-88
2022/10/19 07:18:12;;;;;;;;;;;13.10;99.90;;;;;;5023067;28;19917;-88
2022/10/19 07:20:38;;;;;;;;;;;13.10;99.90;;;;;;5014809;28;20000;-87
2022/10/19 07:23:03;;;;;;;;;;;13.20;99.90;;;;;;5019864;28;19928;-87
2022/10/19 07:25:29;;;;;;;;;;;13.20;99.90;;;;;;5032045;28;20011;-87
2022/10/19 07:27:55;;;;;;;;;;;13.20;99.90;;;;;;5029853;28;19913;-89
2022/10/19 07:30:21;;;;;;;;;;;13.10;99.90;;;;;;5031854;28;19910;-88
2022/10/19 07:32:46;;;;;;;;;;;13.20;99.90;;;;;;5011365;28;19921;-87
2022/10/19 07:35:12;;;;;;;;;;;13.20;99.90;;;;;;5011640;28;20004;-88
2022/10/19 07:37:37;;;;;;;;;;;13.00;99.90;;;;;;5029688;28;20304;-88
2022/10/19 07:40:03;;;;;;;;;;;13.10;99.90;;;;;;5025596;28;19963;-87
2022/10/19 07:42:31;;;;;;;;;;;13.10;99.90;;;;;;5029599;28;19925;-88
2022/10/19 07:44:57;;;;;;;;;;;13.10;99.90;;;;;;5023963;28;20376;-88
2022/10/19 07:47:22;;;;;;;;;;;13.00;99.90;;;;;;5028896;28;19917;-88
2022/10/19 07:49:48;;;;;;;;;;;13.00;99.90;;;;;;5014220;28;19921;-88
2022/10/19 07:52:13;;;;;;;;;;;13.00;99.90;;;;;;5029343;28;19917;-88
2022/10/19 07:54:39;;;;;;;;;;;13.10;99.90;;;;;;5009054;28;19913;-87
2022/10/19 07:57:05;;;;;;;;;;;13.00;99.90;;;;;;5032113;28;19920;-87
2022/10/19 07:59:30;;;;;;;;;;;13.00;99.90;;;;;;5009870;28;20545;-88
2022/10/19 08:01:56;;;;;;;;;;;13.10;99.90;;;;;;5029432;28;19971;-89
2022/10/19 08:04:22;;;;;;;;;;;13.10;99.90;;;;;;5031973;28;19971;-87
2022/10/19 08:06:47;;;;;;;;;;;13.30;99.90;;;;;;5027565;28;19921;-88
2022/10/19 08:09:14;;;;;;;;;;;13.20;99.90;;;;;;5031660;28;19921;-88
2022/10/19 08:11:39;;;;;;;;;;;13.10;99.90;;;;;;5030159;28;19924;-88
2022/10/19 08:14:05;;;;;;;;;;;13.00;99.90;;;;;;5027750;28;20011;-89
2022/10/19 08:16:32;;;;;;;;;;;13.20;99.90;;;;;;5031918;28;19913;-88
2022/10/19 08:18:59;;;;;;;;;;;13.30;99.90;;;;;;5022998;28;20833;-87
2022/10/19 08:21:26;;;;;;;;;;;13.50;99.90;;;;;;5028484;28;19936;-89
2022/10/19 08:23:51;;;;;;;;;;;13.50;99.90;;;;;;5029471;28;19970;-87
2022/10/19 08:26:17;;;;;;;;;;;13.40;99.90;;;;;;5026868;28;20344;-87
2022/10/19 08:28:42;;;;;;;;;;;13.50;99.90;;;;;;5013076;28;19917;-87
2022/10/19 08:31:16;;;;;;;;;;;13.40;99.90;;;;;;5013502;28;20578;-88
2022/10/19 08:33:41;;;;;;;;;;;13.70;99.90;;;;;;5031769;28;19924;-87
2022/10/19 08:36:08;;;;;;;;;;;13.60;99.90;;;;;;5021451;28;19917;-88
2022/10/19 08:38:34;;;;;;;;;;;13.50;99.90;;;;;;5032526;28;19917;-88
2022/10/19 08:41:05;;;;;;;;;;;13.60;99.90;;;;;;5034940;28;19914;-87
2022/10/19 08:43:33;;;;;;;;;;;13.60;99.90;;;;;;5034962;28;19913;-86
2022/10/19 08:46:11;;;;;;;;;;;13.60;99.90;;;;;;5035182;28;20376;-87
2022/10/19 08:48:41;;;;;;;;;;;13.60;99.90;;;;;;5016557;28;19913;-86
2022/10/19 08:51:10;;;;;;;;;;;13.60;99.90;;;;;;5034879;28;20451;-87
2022/10/19 08:53:38;;;;;;;;;;;13.50;99.90;;;;;;5035013;28;19921;-87
2022/10/19 08:56:04;;;;;;;;;;;13.60;99.90;;;;;;5024731;28;20289;-87
2022/10/19 08:58:39;;;;;;;;;;;13.80;99.90;;;;;;5032333;28;19989;-88
2022/10/19 09:01:30;;;;;;;;;;;13.70;99.90;;;;;;5033050;28;19924;-88
2022/10/19 09:04:18;;;;;;;;;;;13.90;99.90;;;;;;5026953;28;19924;-87
2022/10/19 09:07:07;;;;;;;;;;;13.90;99.90;;;;;;5015714;28;19924;-86
2022/10/19 09:09:34;;;;;;;;;;;13.90;99.90;;;;;;5016755;28;19952;-88
2022/10/19 09:12:04;;;;;;;;;;;14.10;99.90;;;;;;5034329;28;19972;-87
2022/10/19 09:14:32;;;;;;;;;;;14.00;99.90;;;;;;5032066;28;19917;-88
2022/10/19 09:17:02;;;;;;;;;;;13.70;99.90;;;;;;5029427;28;19921;-88
2022/10/19 09:19:30;;;;;;;;;;;13.70;99.90;;;;;;5013173;28;19913;-88
2022/10/19 09:22:14;;;;;;;;;;;13.90;99.90;;;;;;5016360;28;20411;-85
2022/10/19 09:24:50;;;;;;;;;;;13.90;99.90;;;;;;5034347;28;19913;-85
2022/10/19 09:27:20;;;;;;;;;;;14.10;99.90;;;;;;5031456;28;19924;-86
2022/10/19 09:29:56;;;;;;;;;;;14.20;99.90;;;;;;5033422;28;19917;-86
2022/10/19 09:32:42;;;;;;;;;;;14.10;99.90;;;;;;5032210;28;19920;-86
2022/10/19 09:35:16;;;;;;;;;;;14.20;99.90;;;;;;5033509;28;20006;-85
2022/10/19 09:37:44;;;;;;;;;;;14.20;99.90;;;;;;5034163;28;19916;-85
2022/10/19 09:40:20;;;;;;;;;;;14.00;99.90;;;;;;5015700;28;19921;-85
2022/10/19 09:42:50;;;;;;;;;;;14.10;99.90;;;;;;5033829;28;19975;-85
2022/10/19 09:45:44;;;;;;;;;;;14.00;99.90;;;;;;5033815;28;19913;-86
2022/10/19 09:48:18;;;;;;;;;;;14.20;99.90;;;;;;5010785;28;19923;-85
2022/10/19 09:50:44;;;;;;;;;;;14.10;99.90;;;;;;5027481;28;20444;-85
2022/10/19 09:53:17;;;;;;;;;;;14.20;99.90;;;;;;5032884;28;19917;-85
2022/10/19 09:55:44;;;;;;;;;;;14.30;99.90;;;;;;5033677;28;19924;-85
2022/10/19 09:58:12;;;;;;;;;;;14.50;99.90;;;;;;5013809;28;19913;-86
2022/10/19 10:00:41;;;;;;;;;;;14.50;99.90;;;;;;5030154;28;19917;-85
2022/10/19 10:03:20;;;;;;;;;;;14.30;99.90;;;;;;5030764;28;19921;-85
2022/10/19 10:05:46;;;;;;;;;;;14.50;99.90;;;;;;5026529;28;20484;-85
2022/10/19 10:08:13;;;;;;;;;;;14.40;99.90;;;;;;5037949;28;20264;-86
2022/10/19 10:10:42;;;;;;;;;;;14.40;99.90;;;;;;5033649;28;19921;-86
2022/10/19 10:13:15;;;;;;;;;;;14.40;99.90;;;;;;5025727;28;19913;-85
2022/10/19 10:15:42;;;;;;;;;;;14.40;99.90;;;;;;5031115;28;20328;-85
2022/10/19 10:18:13;;;;;;;;;;;14.20;99.90;;;;;;5032714;28;19921;-85
2022/10/19 10:20:54;;;;;;;;;;;14.30;99.90;;;;;;5031762;28;19917;-85
2022/10/19 10:23:22;;;;;;;;;;;14.40;99.90;;;;;;5027635;28;19921;-85
2022/10/19 10:25:48;;;;;;;;;;;14.50;99.90;;;;;;5030987;28;19975;-85
2022/10/19 10:28:18;;;;;;;;;;;14.50;99.90;;;;;;5031650;28;20332;-85
2022/10/19 10:30:45;;;;;;;;;;;14.40;99.90;;;;;;5013274;28;19947;-86
2022/10/19 10:33:24;;;;;;;;;;;14.50;99.90;;;;;;5031850;28;19919;-85
2022/10/19 10:35:52;;;;;;;;;;;14.50;99.90;;;;;;5032576;28;19920;-85
2022/10/19 10:38:22;;;;;;;;;;;14.70;99.90;;;;;;5015155;28;20434;-85
2022/10/19 10:40:50;;;;;;;;;;;14.80;99.90;;;;;;5031899;28;19917;-85
2022/10/19 10:43:17;;;;;;;;;;;14.80;99.90;;;;;;5014959;28;20381;-84
2022/10/19 10:45:48;;;;;;;;;;;15.00;99.90;;;;;;5032308;28;20000;-86
2022/10/19 10:48:19;;;;;;;;;;;15.00;99.90;;;;;;5032307;28;19923;-85
2022/10/19 10:50:45;;;;;;;;;;;14.80;99.90;;;;;;5032016;28;19956;-85
2022/10/19 10:53:29;;;;;;;;;;;14.70;99.90;;;;;;5032300;28;19944;-84
2022/10/19 10:55:55;;;;;;;;;;;14.80;99.90;;;;;;5023478;28;20000;-85
2022/10/19 10:58:30;;;;;;;;;;;14.70;99.90;;;;;;5011127;28;20424;-85
2022/10/19 11:00:57;;;;;;;;;;;14.80;99.90;;;;;;5030314;28;19964;-84
2022/10/19 11:03:24;;;;;;;;;;;15.00;99.90;;;;;;5030936;28;19939;-84
2022/10/19 11:05:53;;;;;;;;;;;15.20;99.90;;;;;;5031575;28;19917;-84
2022/10/19 11:08:32;;;;;;;;;;;15.00;99.90;;;;;;5009811;28;19963;-83
2022/10/19 11:11:18;;;;;;;;;;;15.00;99.90;;;;;;5014289;28;19936;-84
2022/10/19 11:14:04;;;;;;;;;;;14.90;99.90;;;;;;5030089;28;19917;-84
2022/10/19 11:16:34;;;;;;;;;;;15.00;99.90;;;;;;5015593;28;19913;-85
2022/10/19 11:19:21;;;;;;;;;;;15.20;99.90;;;;;;5032114;28;19913;-84
2022/10/19 11:21:54;;;;;;;;;;;15.30;99.90;;;;;;5031396;28;19948;-84
2022/10/19 11:24:20;;;;;;;;;;;15.30;99.90;;;;;;5024877;28;20019;-84
2022/10/19 11:26:54;;;;;;;;;;;15.20;99.90;;;;;;5029929;28;20347;-84
2022/10/19 11:29:33;;;;;;;;;;;15.30;99.90;;;;;;5029097;28;19917;-84
2022/10/19 11:31:58;;;;;;;;;;;15.40;99.90;;;;;;5026719;28;19926;-83
2022/10/19 11:34:43;;;;;;;;;;;15.20;99.90;;;;;;5026088;28;19917;-84
2022/10/19 11:37:26;;;;;;;;;;;15.10;99.90;;;;;;5017252;28;19941;-84
2022/10/19 11:39:52;;;;;;;;;;;15.20;99.90;;;;;;5016570;28;19975;-83
2022/10/19 11:42:33;;;;;;;;;;;15.50;99.90;;;;;;5029856;28;20026;-83
2022/10/19 11:45:09;;;;;;;;;;;15.50;99.90;;;;;;5027336;28;19966;-82
2022/10/19 11:47:58;;;;;;;;;;;15.60;99.90;;;;;;5019740;28;19940;-83
2022/10/19 11:50:24;;;;;;;;;;;15.70;99.70;;;;;;5023322;28;20280;-83
2022/10/19 11:52:49;;;;;;;;;;;15.60;99.80;;;;;;5018354;28;19918;-82
2022/10/19 11:55:33;;;;;;;;;;;15.80;98.90;;;;;;5021128;28;19920;-83
2022/10/19 11:58:37;;;;;;;;;;;15.80;99.20;;;;;;5027240;28;19929;-83
2022/10/19 12:01:22;;;;;;;;;;;15.70;99.60;;;;;;4943287;28;20013;-84
2022/10/19 12:03:50;;;;;;;;;;;15.80;99.30;;;;;;4947165;29;19919;-85
2022/10/19 12:06:19;;;;;;;;;;;16.00;99.30;;;;;;4994145;28;20918;-85
2022/10/19 12:08:55;;;;;;;;;;;15.80;98.00;;;;;;5029245;28;20012;-84
2022/10/19 12:11:38;;;;;;;;;;;15.70;98.70;;;;;;5027934;28;19963;-84
2022/10/19 12:14:08;;;;;;;;;;;16.00;96.80;;;;;;5013883;28;20003;-84
2022/10/19 12:16:35;;;;;;;;;;;16.00;96.60;;;;;;5031773;28;19917;-84
2022/10/19 12:19:02;;;;;;;;;;;15.60;97.30;;;;;;5032381;28;19932;-84
2022/10/19 12:21:36;;;;;;;;;;;15.60;98.30;;;;;;5034850;28;19913;-84
2022/10/19 12:24:03;;;;;;;;;;;15.70;96.80;;;;;;5031819;28;19917;-84
2022/10/19 12:26:30;;;;;;;;;;;15.90;97.60;;;;;;5034856;28;19963;-84
2022/10/19 12:28:57;;;;;;;;;;;16.10;96.50;;;;;;5033892;28;20008;-84
2022/10/19 12:31:23;;;;;;;;;;;15.90;96.70;;;;;;5034803;28;20012;-84
2022/10/19 12:34:09;;;;;;;;;;;16.10;96.30;;;;;;5030932;28;20390;-85
2022/10/19 12:36:43;;;;;;;;;;;16.10;95.20;;;;;;5034805;28;19913;-84
2022/10/19 12:39:27;;;;;;;;;;;16.20;95.80;;;;;;5034877;28;19913;-84
2022/10/19 12:42:02;;;;;;;;;;;16.20;96.20;;;;;;5031990;28;19913;-85
2022/10/19 12:44:34;;;;;;;;;;;16.10;95.00;;;;;;5034175;28;19917;-84
2022/10/19 12:47:06;;;;;;;;;;;16.00;95.90;;;;;;5034573;28;19920;-84
2022/10/19 12:49:31;;;;;;;;;;;15.90;96.30;;;;;;5035193;28;19913;-84
2022/10/19 12:51:58;;;;;;;;;;;16.30;95.20;;;;;;5034456;28;20283;-84
2022/10/19 12:54:27;;;;;;;;;;;16.30;94.90;;;;;;5015018;28;20355;-84
2022/10/19 12:56:54;;;;;;;;;;;16.20;94.30;;;;;;5004393;28;19913;-84
2022/10/19 12:59:30;;;;;;;;;;;16.30;94.50;;;;;;5016734;28;20011;-84
2022/10/19 13:01:57;;;;;;;;;;;16.40;93.00;;;;;;5031425;28;19928;-84
2022/10/19 13:04:24;;;;;;;;;;;16.20;93.50;;;;;;5017368;28;20266;-84
2022/10/19 13:06:50;;;;;;;;;;;16.30;93.10;;;;;;5008477;28;20565;-84
2022/10/19 13:09:21;;;;;;;;;;;16.40;93.70;;;;;;5011694;28;20052;-84
2022/10/19 13:12:06;;;;;;;;;;;16.30;93.20;;;;;;5009781;28;19918;-84
2022/10/19 13:14:45;;;;;;;;;;;16.30;92.80;;;;;;5023223;28;19992;-83
2022/10/19 13:17:30;;;;;;;;;;;16.40;92.50;;;;;;5031864;28;19921;-84
2022/10/19 13:20:13;;;;;;;;;;;16.30;91.60;;;;;;5029198;28;19920;-83
2022/10/19 13:22:43;;;;;;;;;;;16.10;92.30;;;;;;5024059;28;19956;-83
2022/10/19 13:25:15;;;;;;;;;;;16.10;92.60;;;;;;5028169;28;19917;-85
2022/10/19 13:27:41;;;;;;;;;;;16.00;92.00;;;;;;5025772;28;19921;-84
2022/10/19 13:30:25;;;;;;;;;;;15.90;92.30;;;;;;5026822;28;19917;-84
2022/10/19 13:32:51;;;;;;;;;;;15.80;92.70;;;;;;5029210;28;19917;-84
2022/10/19 13:35:32;;;;;;;;;;;15.90;93.00;;;;;;5032788;28;20020;-84
2022/10/19 13:38:10;;;;;;;;;;;16.00;92.60;;;;;;5039305;28;19944;-84
2022/10/19 13:40:37;;;;;;;;;;;16.10;92.40;;;;;;5031467;28;19935;-84
2022/10/19 13:43:03;;;;;;;;;;;16.20;92.00;;;;;;5034566;28;19925;-84
2022/10/19 13:45:29;;;;;;;;;;;16.10;91.60;;;;;;5032940;28;19913;-84
2022/10/19 13:48:24;;;;;;;;;;;16.10;91.90;;;;;;5032100;28;19913;-84
2022/10/19 13:51:21;;;;;;;;;;;16.20;91.50;;;;;;5015121;28;19917;-84
2022/10/19 13:54:05;;;;;;;;;;;16.30;91.20;;;;;;4977122;28;19917;-84
2022/10/19 13:56:40;;;;;;;;;;;16.40;90.60;;;;;;5029593;28;20356;-84
2022/10/19 13:59:26;;;;;;;;;;;16.50;90.30;;;;;;5033240;28;19917;-84
2022/10/19 14:01:57;;;;;;;;;;;16.60;90.60;;;;;;5017271;28;20639;-84
2022/10/19 14:04:41;;;;;;;;;;;16.70;90.10;;;;;;5028993;28;19921;-83
2022/10/19 14:07:12;;;;;;;;;;;16.60;86.90;;;;;;5026849;28;20305;-83
2022/10/19 14:09:50;;;;;;;;;;;16.60;89.30;;;;;;5031845;28;19921;-83
2022/10/19 14:12:19;;;;;;;;;;;16.60;87.70;;;;;;5028413;28;19913;-83
2022/10/19 14:14:44;;;;;;;;;;;16.50;86.80;;;;;;5033502;28;19913;-83
2022/10/19 14:17:13;;;;;;;;;;;16.40;86.70;;;;;;5015745;28;19921;-83
2022/10/19 14:19:45;;;;;;;;;;;16.30;88.10;;;;;;5031377;28;19921;-83
2022/10/19 14:22:39;;;;;;;;;;;16.10;88.70;;;;;;5014651;28;19917;-83
2022/10/19 14:25:11;;;;;;;;;;;16.10;88.30;;;;;;4983352;28;20305;-84
2022/10/19 14:27:37;;;;;;;;;;;16.00;89.00;;;;;;5015010;28;19917;-82
2022/10/19 14:30:03;;;;;;;;;;;16.10;88.20;;;;;;5032904;28;19909;-83
2022/10/19 14:32:31;;;;;;;;;;;16.10;88.30;;;;;;5030734;28;19921;-83